Time;durP1;ratioP1;P1;durP2;ratioP2;P2;SDS_P1;SDS_P2;PMS_P1;PMS_P2;Temp;Humidity;BMP_temperature;BMP_pressure;BME280_temperature;BME280_humidity;BME280_pressure;Samples;Min_cycle;Max_cycle;Signal;HPM_P1;HPM_P2
2023/02/14 00:00:46;;;;;;;14.70;11.37;;;;;;;10.59;60.34;103711.34;6256296;28;20255;-69
2023/02/14 00:04:08;;;;;;;12.93;9.57;;;;;;;10.63;60.06;103715.66;6260377;28;20232;-69
2023/02/14 00:07:31;;;;;;;13.30;11.07;;;;;;;10.75;59.81;103720.50;6284371;28;20228;-70
2023/02/14 00:10:52;;;;;;;16.30;10.47;;;;;;;10.73;60.18;103715.19;6282370;28;20308;-69
2023/02/14 00:17:54;;;;;;;17.93;11.50;;;;;;;10.67;60.26;103723.56;6282046;28;20231;-69
2023/02/14 00:21:16;;;;;;;16.47;10.83;;;;;;;10.62;60.21;103722.88;6282582;28;20243;-68
2023/02/14 00:24:37;;;;;;;13.70;9.67;;;;;;;10.79;59.24;103723.00;6270723;28;20318;-69
2023/02/14 00:27:57;;;;;;;14.17;11.17;;;;;;;10.67;59.77;103726.25;6270105;28;20227;-70
2023/02/14 00:31:18;;;;;;;17.93;13.20;;;;;;;10.79;60.01;103727.53;6302064;28;20250;-69
2023/02/14 00:34:40;;;;;;;13.93;10.43;;;;;;;10.82;59.48;103725.59;6305572;28;20234;-69
2023/02/14 00:38:06;;;;;;;15.30;11.10;;;;;;;10.89;59.88;103724.34;6305672;28;20223;-70
2023/02/14 00:41:26;;;;;;;16.80;9.60;;;;;;;10.87;59.82;103720.84;6318584;28;20264;-70
2023/02/14 00:44:48;;;;;;;19.80;13.33;;;;;;;10.71;59.33;103714.38;6308680;28;20227;-69
2023/02/14 00:48:08;;;;;;;17.33;9.80;;;;;;;10.77;59.77;103706.00;6303068;28;20326;-69
2023/02/14 00:51:29;;;;;;;15.07;9.33;;;;;;;10.73;59.25;103714.31;6303275;27;20227;-69
2023/02/14 00:54:51;;;;;;;16.43;12.23;;;;;;;10.62;59.62;103720.16;6281737;28;20601;-69
2023/02/14 00:58:12;;;;;;;15.03;11.17;;;;;;;10.58;60.10;103717.66;6278760;28;20620;-69
2023/02/14 01:01:33;;;;;;;17.20;12.50;;;;;;;10.78;59.93;103709.59;6298395;28;20615;-69
2023/02/14 01:04:54;;;;;;;12.63;9.07;;;;;;;10.71;59.45;103708.97;6305772;28;20230;-70
2023/02/14 01:08:15;;;;;;;12.83;11.00;;;;;;;10.72;59.72;103708.03;6297344;28;20227;-70
2023/02/14 01:11:39;;;;;;;11.77;10.30;;;;;;;10.74;59.89;103700.78;6311051;28;20227;-70
2023/02/14 01:14:59;;;;;;;11.27;9.00;;;;;;;10.61;60.53;103707.63;6297040;28;20360;-69
2023/02/14 01:18:20;;;;;;;15.40;12.20;;;;;;;10.78;60.43;103704.19;6298763;28;20234;-69
2023/02/14 01:21:42;;;;;;;17.10;10.20;;;;;;;10.79;59.45;103704.13;6301458;28;20234;-69
2023/02/14 01:25:03;;;;;;;16.23;10.93;;;;;;;10.63;59.98;103694.97;6309561;28;20239;-70
2023/02/14 01:28:26;;;;;;;12.27;9.97;;;;;;;10.62;60.42;103690.50;6294490;28;20231;-70
2023/02/14 01:31:47;;;;;;;15.60;9.80;;;;;;;10.60;60.36;103687.00;6290945;28;20242;-70
2023/02/14 01:35:09;;;;;;;14.90;11.17;;;;;;;10.68;59.95;103697.47;6305922;28;20231;-70
2023/02/14 01:38:30;;;;;;;13.03;11.03;;;;;;;10.70;60.02;103691.03;6301761;28;20238;-70
2023/02/14 01:41:52;;;;;;;15.80;11.20;;;;;;;10.72;60.18;103686.44;6300293;28;20565;-69
2023/02/14 01:45:18;;;;;;;14.83;9.93;;;;;;;10.83;59.36;103692.25;6304097;28;20234;-70
2023/02/14 01:48:41;;;;;;;16.00;10.27;;;;;;;10.78;59.88;103690.72;6299955;28;20222;-68
2023/02/14 01:52:06;;;;;;;15.27;10.93;;;;;;;10.73;59.49;103680.13;6283578;28;20363;-69
2023/02/14 01:55:30;;;;;;;18.70;10.67;;;;;;;10.67;59.83;103684.91;6288643;28;20228;-70
2023/02/14 01:58:53;;;;;;;14.03;10.37;;;;;;;10.63;60.30;103684.16;6278278;28;20238;-70
2023/02/14 02:02:22;;;;;;;16.73;11.90;;;;;;;10.55;60.04;103677.34;6287119;28;20222;-69
2023/02/14 02:05:48;;;;;;;12.33;10.00;;;;;;;10.63;60.24;103667.09;6265799;28;20246;-70
2023/02/14 02:09:14;;;;;;;18.20;13.40;;;;;;;10.56;59.94;103674.59;6277448;28;20218;-69
2023/02/14 02:12:36;;;;;;;15.77;11.47;;;;;;;10.43;59.92;103668.84;6278741;28;20231;-71
2023/02/14 02:16:17;;;;;;;13.87;11.10;;;;;;;10.49;60.86;103659.63;6276602;28;20331;-70
2023/02/14 02:20:11;;;;;;;15.33;10.67;;;;;;;10.54;60.29;103664.78;6309737;28;20301;-70
2023/02/14 02:23:57;;;;;;;13.13;9.57;;;;;;;10.53;59.73;103661.25;6310946;28;20218;-70
2023/02/14 02:27:25;;;;;;;14.23;9.47;;;;;;;10.32;60.96;103656.78;6298958;28;20230;-69
2023/02/14 02:31:10;;;;;;;16.43;12.43;;;;;;;10.39;61.08;103658.25;6291405;28;20234;-69
2023/02/14 02:35:10;;;;;;;16.33;10.97;;;;;;;10.33;61.08;103656.72;6272727;28;20254;-69
2023/02/14 02:38:56;;;;;;;15.77;11.30;;;;;;;10.16;61.29;103650.28;6295586;27;20225;-68
2023/02/14 02:42:26;;;;;;;16.03;10.83;;;;;;;10.21;61.75;103659.06;6315398;28;20231;-68
2023/02/14 02:53:32;;;;;;;17.87;11.37;;;;;;;10.20;61.04;103654.63;6295192;28;21766;-69
2023/02/14 02:56:57;;;;;;;18.67;12.50;;;;;;;10.15;60.77;103653.94;6302955;28;20241;-70
2023/02/14 03:00:21;;;;;;;16.80;10.93;;;;;;;10.06;61.75;103651.56;6297612;28;20230;-70
2023/02/14 03:07:35;;;;;;;20.43;12.03;;;;;;;10.13;61.84;103655.81;6285584;28;20762;-70
2023/02/14 03:11:02;;;;;;;16.40;10.17;;;;;;;10.24;61.57;103650.84;6301112;28;20230;-69
2023/02/14 03:14:34;;;;;;;18.20;12.53;;;;;;;10.15;61.31;103654.81;6301644;27;20230;-69
2023/02/14 03:21:50;;;;;;;17.10;11.30;;;;;;;10.14;61.99;103636.00;6244767;28;20321;-69
2023/02/14 03:25:29;;;;;;;19.43;11.23;;;;;;;10.18;61.63;103640.34;6292961;28;20828;-69
2023/02/14 03:28:59;;;;;;;18.77;10.90;;;;;;;10.10;61.66;103645.13;6277643;28;20226;-70
2023/02/14 03:32:29;;;;;;;18.80;12.60;;;;;;;9.93;62.05;103644.97;6290330;28;20246;-70
2023/02/14 03:36:00;;;;;;;15.47;11.23;;;;;;;10.10;62.03;103646.03;6289487;28;20615;-70
2023/02/14 03:39:26;;;;;;;15.67;10.67;;;;;;;10.17;61.66;103644.84;6289599;28;20249;-69
2023/02/14 03:42:52;;;;;;;16.37;11.30;;;;;;;10.08;61.56;103636.22;6315093;28;20230;-70
2023/02/14 03:46:19;;;;;;;20.03;13.10;;;;;;;10.26;61.72;103635.47;6303489;28;20649;-70
2023/02/14 03:49:46;;;;;;;13.33;10.23;;;;;;;10.32;61.27;103628.00;6296125;27;20221;-70
2023/02/14 03:53:10;;;;;;;17.47;11.53;;;;;;;10.19;62.00;103628.59;6272208;28;20248;-69
2023/02/14 03:56:36;;;;;;;16.63;12.43;;;;;;;10.28;62.80;103622.81;6291521;28;20227;-70
2023/02/14 03:59:57;;;;;;;15.73;10.93;;;;;;;10.32;62.71;103621.72;6289582;28;20258;-71
2023/02/14 04:03:20;;;;;;;18.60;10.87;;;;;;;10.14;63.53;103625.19;6284936;28;20238;-70
2023/02/14 04:06:41;;;;;;;18.60;10.23;;;;;;;10.29;63.04;103619.16;6293558;28;20223;-70
2023/02/14 04:10:02;;;;;;;12.40;10.10;;;;;;;10.20;62.56;103608.78;6297845;28;20326;-70
2023/02/14 04:13:23;;;;;;;14.20;9.43;;;;;;;10.18;62.97;103611.53;6271558;28;20503;-69
2023/02/14 04:20:23;;;;;;;17.97;11.90;;;;;;;10.24;62.70;103605.03;6287322;28;20226;-69
2023/02/14 04:23:44;;;;;;;21.77;15.10;;;;;;;10.34;61.98;103604.56;6301779;28;20325;-70
2023/02/14 04:27:11;;;;;;;24.23;18.17;;;;;;;10.27;61.82;103605.75;6304496;28;20234;-70
2023/02/14 04:30:32;;;;;;;19.97;14.80;;;;;;;10.21;62.13;103607.84;6286278;28;20596;-69
2023/02/14 04:33:53;;;;;;;19.63;13.17;;;;;;;10.09;62.87;103601.13;6281084;27;20225;-70
2023/02/14 04:37:16;;;;;;;17.93;10.13;;;;;;;10.13;62.21;103597.41;6284689;28;20219;-70
2023/02/14 04:40:37;;;;;;;18.90;12.37;;;;;;;10.13;62.43;103605.50;6289811;28;20235;-69
2023/02/14 04:43:58;;;;;;;20.23;12.40;;;;;;;10.08;62.46;103598.47;6301622;28;20547;-69
2023/02/14 04:47:19;;;;;;;16.30;13.03;;;;;;;10.06;62.22;103603.06;6304044;28;20238;-69
2023/02/14 04:50:40;;;;;;;13.73;9.43;;;;;;;10.13;62.59;103593.81;6302758;28;20226;-70
2023/02/14 04:54:02;;;;;;;14.63;10.37;;;;;;;10.12;62.79;103592.94;6300130;28;20242;-70
2023/02/14 04:57:23;;;;;;;17.97;10.90;;;;;;;10.04;62.90;103595.06;6271155;28;20500;-70
2023/02/14 05:00:44;;;;;;;23.37;12.40;;;;;;;10.21;62.69;103592.53;6282790;28;23183;-70
2023/02/14 05:04:05;;;;;;;19.67;12.83;;;;;;;10.23;62.72;103592.47;6303327;28;20225;-69
2023/02/14 05:07:26;;;;;;;32.33;23.53;;;;;;;10.14;62.90;103588.34;6301919;28;20511;-70
2023/02/14 05:10:48;;;;;;;34.00;24.87;;;;;;;10.18;62.69;103595.34;6289133;28;20238;-71
2023/02/14 05:14:09;;;;;;;20.03;14.20;;;;;;;10.02;62.69;103588.84;6291426;28;20235;-70
2023/02/14 05:17:30;;;;;;;17.23;12.87;;;;;;;10.04;63.27;103584.28;6269098;28;20731;-69
2023/02/14 05:20:52;;;;;;;26.07;15.57;;;;;;;10.21;62.71;103587.16;6294935;28;20325;-70
2023/02/14 05:24:13;;;;;;;19.80;13.80;;;;;;;10.18;62.97;103589.13;6308697;28;20226;-69
2023/02/14 05:27:35;;;;;;;18.07;12.93;;;;;;;10.21;63.02;103587.16;6287630;28;20222;-69
2023/02/14 05:30:57;;;;;;;16.03;12.30;;;;;;;10.25;62.70;103587.88;6305172;28;20229;-70
2023/02/14 05:34:18;;;;;;;22.87;11.63;;;;;;;10.30;62.58;103585.88;6304093;27;20233;-70
2023/02/14 05:37:39;;;;;;;16.33;11.13;;;;;;;10.16;62.79;103590.97;6281208;28;20340;-69
2023/02/14 05:41:00;;;;;;;16.40;12.50;;;;;;;10.26;62.57;103587.81;6295642;28;20243;-69
2023/02/14 05:44:23;;;;;;;15.77;9.97;;;;;;;10.27;62.66;103588.69;6290212;28;20225;-69
2023/02/14 05:47:44;;;;;;;14.50;10.73;;;;;;;10.23;62.92;103579.88;6276708;28;20230;-69
2023/02/14 05:51:06;;;;;;;13.23;11.00;;;;;;;10.23;62.70;103573.59;6288440;28;20317;-70
2023/02/14 05:54:27;;;;;;;18.40;11.90;;;;;;;10.32;62.60;103578.59;6294293;28;20535;-69
2023/02/14 05:57:48;;;;;;;18.97;10.30;;;;;;;10.31;62.70;103577.72;6292630;28;20235;-70
2023/02/14 06:01:10;;;;;;;13.87;9.93;;;;;;;10.29;62.35;103585.00;6302659;28;20222;-70
2023/02/14 06:04:31;;;;;;;13.40;10.37;;;;;;;10.31;62.59;103583.09;6289787;28;20283;-69
2023/02/14 06:07:52;;;;;;;12.77;9.43;;;;;;;10.43;62.26;103578.97;6275924;28;20231;-69
2023/02/14 06:11:13;;;;;;;16.23;11.10;;;;;;;10.14;62.58;103574.00;6278299;28;20227;-69
2023/02/14 06:14:34;;;;;;;15.00;11.53;;;;;;;10.18;63.73;103572.94;6284832;28;20327;-70
2023/02/14 06:17:58;;;;;;;21.90;11.47;;;;;;;10.27;63.59;103576.09;6274108;28;20523;-69
2023/02/14 06:21:19;;;;;;;12.50;9.37;;;;;;;10.51;62.91;103581.34;6305145;28;20547;-71
2023/02/14 06:24:40;;;;;;;18.83;12.77;;;;;;;10.52;62.18;103578.56;6301409;27;20229;-70
2023/02/14 06:28:01;;;;;;;12.03;10.77;;;;;;;10.50;62.26;103582.25;6272811;28;20318;-70
2023/02/14 06:31:22;;;;;;;11.80;10.60;;;;;;;10.45;62.63;103587.91;6298001;28;20226;-69
2023/02/14 06:34:44;;;;;;;21.33;12.70;;;;;;;10.41;62.84;103592.53;6289697;28;20234;-70
2023/02/14 06:38:05;;;;;;;14.53;10.70;;;;;;;10.35;62.88;103594.63;6264027;28;20254;-69
2023/02/14 06:41:25;;;;;;;14.53;9.53;;;;;;;10.45;63.14;103593.28;6282236;28;21135;-70
2023/02/14 06:44:46;;;;;;;16.63;12.83;;;;;;;10.40;63.05;103589.91;6286146;28;20317;-71
2023/02/14 06:48:07;;;;;;;13.77;10.50;;;;;;;10.32;62.89;103592.06;6279407;28;20250;-69
2023/02/14 06:51:31;;;;;;;17.70;11.17;;;;;;;10.46;62.70;103595.03;6280581;28;20563;-68
2023/02/14 06:54:52;;;;;;;19.73;13.37;;;;;;;10.47;62.99;103602.19;6297565;27;20226;-68
2023/02/14 06:58:13;;;;;;;13.53;9.47;;;;;;;10.51;62.97;103603.81;6283406;28;20333;-70
2023/02/14 07:01:34;;;;;;;16.30;10.20;;;;;;;10.42;63.08;103609.59;6284279;28;20231;-69
2023/02/14 07:04:55;;;;;;;16.27;10.37;;;;;;;10.12;64.09;103600.13;6275616;28;20229;-69
2023/02/14 07:08:17;;;;;;;13.47;12.03;;;;;;;10.34;63.30;103595.56;6275801;28;20238;-70
2023/02/14 07:11:38;;;;;;;15.63;10.10;;;;;;;10.39;63.19;103598.94;6282167;28;20515;-69
2023/02/14 07:14:59;;;;;;;13.23;10.53;;;;;;;10.33;63.59;103594.69;6267050;28;20266;-69
2023/02/14 07:18:20;;;;;;;15.87;10.63;;;;;;;10.40;63.29;103593.50;6264718;28;20226;-68
2023/02/14 07:21:42;;;;;;;15.33;10.27;;;;;;;10.31;63.48;103584.91;6272343;28;20243;-68
2023/02/14 07:25:06;;;;;;;15.13;9.97;;;;;;;10.44;63.38;103592.41;6252644;28;20238;-69
2023/02/14 07:28:29;;;;;;;12.70;10.47;;;;;;;10.58;62.74;103580.97;6250923;28;20235;-69
2023/02/14 07:31:50;;;;;;;14.67;11.03;;;;;;;10.71;62.47;103582.19;6295189;27;21093;-69
2023/02/14 07:35:11;;;;;;;13.50;10.30;;;;;;;10.35;63.40;103581.13;6286228;28;20238;-68
2023/02/14 07:38:31;;;;;;;12.57;9.03;;;;;;;10.29;63.35;103581.41;6269434;28;20226;-70
2023/02/14 07:41:54;;;;;;;13.40;8.67;;;;;;;10.37;63.34;103585.53;6277954;28;20226;-69
2023/02/14 07:45:15;;;;;;;14.80;11.43;;;;;;;10.66;62.45;103589.59;6270678;28;22977;-71
2023/02/14 07:48:38;;;;;;;19.03;12.13;;;;;;;10.86;62.38;103584.16;6259295;28;20242;-68
2023/02/14 07:51:59;;;;;;;14.83;11.77;;;;;;;11.00;62.32;103581.69;6286116;28;20220;-71
2023/02/14 07:55:21;;;;;;;13.53;9.17;;;;;;;11.13;61.23;103574.78;6270928;28;20641;-71
2023/02/14 07:58:44;;;;;;;16.43;10.93;;;;;;;11.16;61.02;103576.41;6276415;27;21095;-69
2023/02/14 08:02:05;;;;;;;15.73;9.93;;;;;;;10.85;62.09;103577.00;6300425;28;20230;-70
2023/02/14 08:05:26;;;;;;;13.73;10.23;;;;;;;10.93;62.22;103580.22;6302677;28;20662;-70
2023/02/14 08:08:47;;;;;;;14.23;8.93;;;;;;;10.98;61.84;103575.50;6293559;28;20669;-70
2023/02/14 08:16:04;;;;;;;19.10;12.77;;;;;;;11.18;61.25;103575.41;6293693;28;20238;-69
2023/02/14 08:19:25;;;;;;;24.77;16.50;;;;;;;11.28;61.10;103571.31;6297695;28;20250;-67
2023/02/14 08:22:46;;;;;;;17.67;12.63;;;;;;;11.47;60.53;103575.81;6257629;28;20236;-68
2023/02/14 08:26:07;;;;;;;13.83;10.63;;;;;;;11.62;59.53;103567.81;6278968;28;20235;-68
2023/02/14 08:29:28;;;;;;;9.60;7.67;;;;;;;11.33;60.62;103573.78;6266304;28;20328;-69
2023/02/14 08:32:50;;;;;;;10.97;9.43;;;;;;;11.11;60.99;103568.56;6287115;28;20227;-72
2023/02/14 08:36:11;;;;;;;11.63;8.50;;;;;;;11.14;61.88;103568.41;6297735;28;20239;-67
2023/02/14 08:39:32;;;;;;;10.80;8.27;;;;;;;11.44;60.22;103571.44;6282806;28;20598;-70
2023/02/14 08:42:54;;;;;;;8.83;7.50;;;;;;;11.72;60.07;103571.84;6285051;28;20517;-69
2023/02/14 08:46:15;;;;;;;12.03;9.30;;;;;;;11.66;59.87;103571.25;6292957;28;20231;-69
2023/02/14 08:49:37;;;;;;;13.17;8.70;;;;;;;11.70;59.48;103572.88;6289279;28;20226;-69
2023/02/14 08:52:58;;;;;;;14.13;9.00;;;;;;;11.58;59.88;103573.44;6286468;28;20227;-69
2023/02/14 08:56:21;;;;;;;12.70;8.93;;;;;;;11.37;60.29;103569.13;6304656;28;20227;-70
2023/02/14 08:59:42;;;;;;;10.80;8.83;;;;;;;11.05;61.81;103576.09;6294787;28;20510;-69
2023/02/14 09:03:03;;;;;;;12.97;8.93;;;;;;;11.62;59.87;103577.78;6287547;28;20273;-69
2023/02/14 09:06:25;;;;;;;11.43;8.50;;;;;;;12.03;58.35;103573.88;6290090;28;20318;-70
2023/02/14 09:09:46;;;;;;;12.83;8.00;;;;;;;12.17;58.94;103574.00;6296872;28;20244;-70
2023/02/14 09:13:07;;;;;;;10.27;7.53;;;;;;;11.88;58.15;103571.94;6273268;28;20324;-71
2023/02/14 09:16:27;;;;;;;12.07;8.67;;;;;;;12.13;59.06;103563.44;6284410;28;20235;-70
2023/02/14 09:19:48;;;;;;;9.50;8.17;;;;;;;12.67;56.57;103555.94;6297791;27;20225;-71
2023/02/14 09:23:10;;;;;;;18.10;9.13;;;;;;;13.05;54.76;103556.56;6267689;28;20234;-69
2023/02/14 09:26:32;;;;;;;8.43;6.47;;;;;;;14.55;52.63;103552.97;6289852;28;20227;-70
2023/02/14 09:29:53;;;;;;;9.77;8.07;;;;;;;17.58;44.77;103547.19;6288021;28;20234;-70
2023/02/14 09:33:14;;;;;;;11.00;8.67;;;;;;;18.34;41.15;103546.59;6274116;28;20226;-71
2023/02/14 09:40:18;;;;;;;8.85;7.05;;;;;;;20.37;37.73;103535.00;6293706;28;20231;-71
2023/02/14 09:43:51;;;;;;;12.40;9.20;;;;;;;18.52;39.21;103538.84;6297320;28;20223;-70
2023/02/14 09:47:20;;;;;;;8.98;6.68;;;;;;;20.03;38.15;103536.16;6283473;28;20226;-72
2023/02/14 09:50:47;;;;;;;9.95;8.20;;;;;;;21.70;34.22;103525.47;6262495;28;20226;-69
2023/02/14 09:54:12;;;;;;;7.90;6.50;;;;;;;22.96;32.32;103525.97;6278296;28;20242;-70
2023/02/14 09:57:44;;;;;;;8.40;7.50;;;;;;;22.62;32.30;103522.94;6279843;28;20230;-68
2023/02/14 10:01:15;;;;;;;11.60;7.63;;;;;;;23.17;31.38;103522.97;6295141;28;20222;-70
2023/02/14 10:04:41;;;;;;;9.65;7.97;;;;;;;23.33;31.15;103526.81;6293953;28;20226;-70
2023/02/14 10:08:10;;;;;;;9.25;7.82;;;;;;;23.54;30.44;103519.13;6261630;28;22349;-70
2023/02/14 10:11:32;;;;;;;8.80;7.95;;;;;;;24.47;29.58;103513.00;6265495;28;20258;-69
2023/02/14 10:14:57;;;;;;;11.27;8.25;;;;;;;24.71;28.67;103521.44;6290599;28;20234;-71
2023/02/14 10:18:21;;;;;;;9.30;8.40;;;;;;;25.48;28.65;103514.88;6272851;28;20576;-69
2023/02/14 10:21:48;;;;;;;10.07;8.88;;;;;;;25.54;27.83;103517.81;6303169;28;20234;-67
2023/02/14 10:25:18;;;;;;;10.10;9.10;;;;;;;24.88;28.50;103516.91;6299053;28;20242;-70
2023/02/14 10:28:44;;;;;;;10.52;8.18;;;;;;;23.94;29.92;103515.88;6283293;28;20233;-69
2023/02/14 10:32:13;;;;;;;10.13;9.10;;;;;;;25.25;28.55;103515.50;6285565;28;20461;-69
2023/02/14 10:35:41;;;;;;;8.68;7.18;;;;;;;25.56;27.92;103510.22;6278767;28;20227;-71
2023/02/14 10:39:12;;;;;;;11.65;9.55;;;;;;;26.95;26.83;103507.16;6268246;28;20615;-69
2023/02/14 10:42:40;;;;;;;9.57;8.55;;;;;;;27.99;25.03;103498.22;6295799;28;20250;-67
2023/02/14 10:46:10;;;;;;;11.15;8.18;;;;;;;27.36;24.89;103497.63;6274357;28;21757;-70
2023/02/14 10:49:41;;;;;;;11.50;8.70;;;;;;;25.22;27.85;103495.63;6275668;28;20259;-70
2023/02/14 10:53:12;;;;;;;10.82;9.73;;;;;;;28.34;24.37;103491.09;6271196;28;20234;-70
2023/02/14 10:56:38;;;;;;;9.48;8.57;;;;;;;28.28;24.18;103492.72;6283078;28;20239;-70
2023/02/14 11:00:02;;;;;;;9.55;8.65;;;;;;;26.52;25.49;103502.94;6278130;28;20600;-69
2023/02/14 11:03:23;;;;;;;9.82;8.82;;;;;;;28.84;23.59;103488.44;6270484;28;20230;-69
2023/02/14 11:06:48;;;;;;;10.02;9.02;;;;;;;28.80;23.94;103492.66;6292943;28;20223;-68
2023/02/14 11:10:13;;;;;;;11.00;9.82;;;;;;;27.03;24.98;103488.59;6297025;28;20261;-69
2023/02/14 11:13:36;;;;;;;9.98;9.07;;;;;;;26.07;27.48;103485.06;6301731;28;20317;-67
2023/02/14 11:16:58;;;;;;;11.63;9.68;;;;;;;27.49;25.16;103481.25;6271344;28;20321;-68
2023/02/14 11:20:26;;;;;;;11.05;9.20;;;;;;;28.75;24.28;103484.03;6272880;28;20231;-70
2023/02/14 11:23:50;;;;;;;12.05;10.85;;;;;;;30.24;22.68;103469.22;6289764;28;20233;-70
2023/02/14 11:27:17;;;;;;;15.63;14.13;;;;;;;30.57;22.56;103463.88;6273727;28;20231;-70
2023/02/14 11:30:40;;;;;;;12.55;9.75;;;;;;;29.10;23.01;103449.03;6269947;28;20230;-69
2023/02/14 11:34:05;;;;;;;11.75;9.00;;;;;;;29.11;23.37;103450.72;6273691;28;20788;-69
2023/02/14 11:37:28;;;;;;;10.80;9.77;;;;;;;29.83;22.76;103443.22;6294006;28;20698;-70
2023/02/14 11:40:55;;;;;;;13.45;8.88;;;;;;;29.08;23.46;103435.31;6275811;28;20247;-70
2023/02/14 11:44:22;;;;;;;10.82;9.73;;;;;;;27.46;24.92;103440.91;6300335;27;20221;-69
2023/02/14 11:47:45;;;;;;;11.07;9.85;;;;;;;25.13;27.54;103427.59;6303325;28;20263;-70
2023/02/14 11:51:08;;;;;;;10.52;9.48;;;;;;;28.29;25.00;103421.41;6273074;28;20227;-70
2023/02/14 11:54:34;;;;;;;10.23;9.15;;;;;;;28.63;24.28;103413.38;6274425;28;20730;-70
2023/02/14 11:57:57;;;;;;;11.35;9.85;;;;;;;27.33;25.41;103410.13;6283196;28;21107;-70
2023/02/14 12:01:24;;;;;;;10.90;9.80;;;;;;;28.97;23.69;103405.28;6285808;28;20573;-69
2023/02/14 12:04:48;;;;;;;13.98;10.18;;;;;;;30.10;22.74;103397.81;6271203;27;20225;-71
2023/02/14 12:08:10;;;;;;;9.20;8.27;;;;;;;28.58;24.58;103395.59;6266371;28;20234;-70
2023/02/14 12:11:31;;;;;;;9.80;8.77;;;;;;;25.53;26.97;103389.00;6284744;28;20259;-71
2023/02/14 12:15:22;;;;;;;9.05;8.20;;;;;;;27.91;24.97;103387.31;6279187;28;20230;-70
2023/02/14 12:18:54;;;;;;;9.60;8.45;;;;;;;27.58;24.98;103383.97;6290399;28;20237;-69
2023/02/14 12:22:18;;;;;;;11.30;9.50;;;;;;;23.42;30.32;103390.94;6287847;27;20233;-72
2023/02/14 12:25:46;;;;;;;10.00;9.10;;;;;;;26.67;26.59;103373.84;6266816;28;20223;-70
2023/02/14 12:29:16;;;;;;;9.55;8.60;;;;;;;26.26;26.37;103380.59;6273023;27;20245;-69
2023/02/14 12:32:46;;;;;;;10.05;7.90;;;;;;;26.31;27.27;103379.00;6267469;27;20245;-70
2023/02/14 12:36:16;;;;;;;10.02;8.88;;;;;;;26.97;26.00;103377.69;6272315;28;20230;-74
2023/02/14 12:39:48;;;;;;;10.95;9.88;;;;;;;25.57;28.05;103372.94;6298382;28;20233;-71
2023/02/14 12:43:28;;;;;;;18.38;16.38;;;;;;;25.77;28.03;103377.03;6279306;28;20233;-71
2023/02/14 12:47:08;;;;;;;12.55;10.32;;;;;;;23.95;29.78;103370.69;6279635;27;20228;-69
2023/02/14 12:50:43;;;;;;;9.48;8.52;;;;;;;23.33;30.98;103360.72;6286854;28;20608;-70
2023/02/14 12:54:27;;;;;;;10.68;9.55;;;;;;;22.43;31.92;103360.75;6279089;28;20230;-71
2023/02/14 12:57:54;;;;;;;10.20;8.77;;;;;;;21.25;34.21;103355.88;6258488;28;20258;-72
2023/02/14 13:01:46;;;;;;;9.45;8.48;;;;;;;20.86;36.16;103345.84;6296811;27;20222;-69
2023/02/14 13:05:19;;;;;;;9.13;7.72;;;;;;;20.51;35.53;103342.75;6277740;28;20254;-71
2023/02/14 13:09:04;;;;;;;10.75;9.43;;;;;;;21.92;34.01;103335.69;6289191;27;20226;-69
2023/02/14 13:12:34;;;;;;;14.05;9.63;;;;;;;22.11;33.32;103325.44;6288867;28;20234;-73
2023/02/14 13:16:06;;;;;;;10.50;8.73;;;;;;;19.48;38.65;103321.97;6287677;28;20231;-71
2023/02/14 13:19:36;;;;;;;9.68;8.10;;;;;;;20.35;36.70;103320.50;6281610;28;20276;-72
2023/02/14 13:23:02;;;;;;;12.57;10.65;;;;;;;21.39;35.34;103319.75;6264315;28;20322;-69
2023/02/14 13:26:32;;;;;;;11.57;8.95;;;;;;;21.67;34.74;103304.22;6297231;28;20620;-69
2023/02/14 13:29:58;;;;;;;10.48;8.23;;;;;;;21.66;35.00;103307.97;6284260;28;20349;-69
2023/02/14 13:33:30;;;;;;;9.43;8.52;;;;;;;19.36;39.11;103295.66;6287923;28;20226;-70
2023/02/14 13:36:51;;;;;;;10.32;9.25;;;;;;;22.30;33.97;103283.25;6294192;28;20231;-72
2023/02/14 13:40:19;;;;;;;10.80;8.75;;;;;;;21.97;34.13;103287.50;6295824;28;20234;-73
2023/02/14 13:43:55;;;;;;;8.80;6.93;;;;;;;21.56;34.21;103279.69;6270995;28;20234;-70
2023/02/14 13:47:19;;;;;;;12.23;8.82;;;;;;;19.76;37.53;103284.78;6295845;28;20320;-70
2023/02/14 13:50:50;;;;;;;12.75;8.82;;;;;;;19.62;39.16;103276.94;6306755;28;20226;-69
2023/02/14 13:54:21;;;;;;;12.85;8.68;;;;;;;20.10;38.32;103275.28;6307620;28;20228;-69
2023/02/14 13:57:43;;;;;;;10.77;8.10;;;;;;;17.64;43.26;103273.88;6297551;28;20706;-73
2023/02/14 14:01:30;;;;;;;9.07;7.97;;;;;;;17.04;44.47;103288.63;6289977;28;20234;-71
2023/02/14 14:04:51;;;;;;;10.63;7.80;;;;;;;18.18;42.07;103278.47;6274394;28;20332;-70
2023/02/14 14:08:36;;;;;;;9.77;8.73;;;;;;;18.25;41.95;103267.91;6270722;28;20239;-69
2023/02/14 14:12:00;;;;;;;12.07;9.90;;;;;;;17.91;43.08;103274.38;6303689;28;20235;-72
2023/02/14 14:15:20;;;;;;;10.50;8.68;;;;;;;19.17;40.14;103267.28;6273574;28;20231;-69
2023/02/14 14:18:43;;;;;;;10.40;8.27;;;;;;;19.82;39.00;103262.34;6263612;28;20251;-69
2023/02/14 14:22:07;;;;;;;8.27;7.40;;;;;;;20.13;39.04;103257.72;6281982;28;20227;-70
2023/02/14 14:25:32;;;;;;;10.93;8.85;;;;;;;20.16;37.95;103261.03;6296361;27;20504;-73
2023/02/14 14:28:54;;;;;;;12.10;9.52;;;;;;;19.99;38.54;103260.81;6284656;28;20229;-70
2023/02/14 14:32:20;;;;;;;10.85;9.07;;;;;;;21.01;37.02;103256.63;6293061;28;20318;-68
2023/02/14 14:35:52;;;;;;;13.75;7.85;;;;;;;20.99;36.05;103266.03;6285708;28;20234;-68
2023/02/14 14:39:26;;;;;;;10.68;7.90;;;;;;;21.15;35.76;103258.13;6298322;27;20222;-69
2023/02/14 14:42:48;;;;;;;10.63;7.57;;;;;;;22.00;35.12;103250.63;6286284;28;20222;-73
2023/02/14 14:46:12;;;;;;;11.77;9.35;;;;;;;21.91;34.93;103246.03;6309842;27;20312;-70
2023/02/14 14:49:33;;;;;;;10.10;7.70;;;;;;;20.93;36.88;103247.41;6282971;28;20234;-69
2023/02/14 14:52:57;;;;;;;10.45;9.30;;;;;;;22.03;34.70;103242.91;6263498;28;20235;-70
2023/02/14 14:56:21;;;;;;;9.70;8.90;;;;;;;20.51;37.34;103241.34;6286614;28;20594;-69
2023/02/14 14:59:42;;;;;;;10.88;9.75;;;;;;;20.92;36.70;103237.47;6272004;28;20309;-70
2023/02/14 15:03:06;;;;;;;9.57;8.65;;;;;;;20.35;38.54;103232.81;6264273;28;20231;-67
2023/02/14 15:06:27;;;;;;;10.02;9.02;;;;;;;19.40;39.85;103231.47;6304644;28;20246;-71
2023/02/14 15:09:50;;;;;;;10.05;9.02;;;;;;;17.65;44.00;103234.72;6287474;28;20419;-69
2023/02/14 15:16:56;;;;;;;9.13;7.97;;;;;;;16.61;47.51;103228.41;6275325;28;20235;-69
2023/02/14 15:20:20;;;;;;;14.13;8.23;;;;;;;16.44;48.07;103230.63;6276320;28;20318;-69
2023/02/14 15:23:43;;;;;;;8.63;7.33;;;;;;;16.29;48.64;103216.31;6283417;28;20223;-69
2023/02/14 15:27:15;;;;;;;10.27;7.10;;;;;;;16.08;49.43;103217.09;6293100;28;20247;-70
2023/02/14 15:30:37;;;;;;;11.00;8.93;;;;;;;15.11;51.71;103218.72;6269352;28;20227;-70
2023/02/14 15:34:01;;;;;;;9.90;8.90;;;;;;;15.07;52.26;103214.47;6271412;28;20218;-70
2023/02/14 15:37:24;;;;;;;11.53;9.53;;;;;;;15.60;51.29;103213.41;6292534;28;20230;-71
2023/02/14 15:40:45;;;;;;;8.07;7.37;;;;;;;14.96;52.88;103200.78;6288917;28;20227;-71
2023/02/14 15:44:19;;;;;;;11.37;8.83;;;;;;;14.82;53.36;103201.75;6285474;28;20231;-71
2023/02/14 15:47:41;;;;;;;9.07;7.57;;;;;;;15.28;52.41;103198.50;6270873;28;20227;-72
2023/02/14 15:51:05;;;;;;;10.30;8.70;;;;;;;14.76;53.49;103206.75;6295042;28;20294;-72
2023/02/14 15:54:35;;;;;;;8.00;7.13;;;;;;;15.10;52.75;103197.97;6283450;28;20222;-71
2023/02/14 15:57:59;;;;;;;9.97;8.20;;;;;;;14.63;54.46;103203.13;6275957;28;20238;-71
2023/02/14 16:01:21;;;;;;;8.80;7.83;;;;;;;14.83;53.93;103191.78;6297797;28;20231;-72
2023/02/14 16:04:42;;;;;;;14.70;9.97;;;;;;;14.41;55.27;103192.88;6292751;28;20241;-71
2023/02/14 16:08:05;;;;;;;9.07;7.50;;;;;;;14.72;54.68;103194.34;6305422;28;20313;-70
2023/02/14 16:11:32;;;;;;;8.83;6.23;;;;;;;15.13;53.19;103187.75;6300489;28;20224;-70